sensor_id;sensor_type;location;lat;lon;timestamp;P1;durP1;ratioP1;P2;durP2;ratioP2
41261;SDS011;29629;52.532;13.352;2023-07-30T00:00:49;104.63;;;75.75;;
41261;SDS011;29629;52.532;13.352;2023-07-30T00:03:16;101.47;;;74.50;;
41261;SDS011;29629;52.532;13.352;2023-07-30T00:05:51;111.72;;;78.55;;
41261;SDS011;29629;52.532;13.352;2023-07-30T00:08:19;105.90;;;76.53;;
41261;SDS011;29629;52.532;13.352;2023-07-30T00:10:46;99.75;;;74.80;;
41261;SDS011;29629;52.532;13.352;2023-07-30T00:13:13;100.25;;;74.53;;
41261;SDS011;29629;52.532;13.352;2023-07-30T00:15:40;106.63;;;76.82;;
41261;SDS011;29629;52.532;13.352;2023-07-30T00:18:07;102.03;;;74.97;;
41261;SDS011;29629;52.532;13.352;2023-07-30T00:20:34;102.32;;;74.72;;
41261;SDS011;29629;52.532;13.352;2023-07-30T00:23:01;101.45;;;74.38;;
41261;SDS011;29629;52.532;13.352;2023-07-30T00:25:30;107.15;;;76.10;;
41261;SDS011;29629;52.532;13.352;2023-07-30T00:27:57;99.45;;;73.20;;
41261;SDS011;29629;52.532;13.352;2023-07-30T00:30:24;94.15;;;72.95;;
41261;SDS011;29629;52.532;13.352;2023-07-30T00:32:51;101.07;;;74.65;;
41261;SDS011;29629;52.532;13.352;2023-07-30T00:35:18;104.65;;;75.18;;
41261;SDS011;29629;52.532;13.352;2023-07-30T00:37:45;99.38;;;73.93;;
41261;SDS011;29629;52.532;13.352;2023-07-30T00:40:11;103.32;;;75.60;;
41261;SDS011;29629;52.532;13.352;2023-07-30T00:42:40;100.05;;;74.18;;
41261;SDS011;29629;52.532;13.352;2023-07-30T00:45:07;114.75;;;78.30;;
41261;SDS011;29629;52.532;13.352;2023-07-30T00:47:35;104.88;;;75.65;;
41261;SDS011;29629;52.532;13.352;2023-07-30T00:50:04;99.57;;;73.82;;
41261;SDS011;29629;52.532;13.352;2023-07-30T00:52:32;105.60;;;75.15;;
41261;SDS011;29629;52.532;13.352;2023-07-30T00:55:02;99.50;;;73.57;;
41261;SDS011;29629;52.532;13.352;2023-07-30T00:57:29;101.38;;;73.38;;
41261;SDS011;29629;52.532;13.352;2023-07-30T00:59:58;100.75;;;73.85;;
41261;SDS011;29629;52.532;13.352;2023-07-30T01:02:29;99.45;;;73.18;;
41261;SDS011;29629;52.532;13.352;2023-07-30T01:04:57;99.35;;;73.38;;
41261;SDS011;29629;52.532;13.352;2023-07-30T01:07:25;95.03;;;72.03;;
41261;SDS011;29629;52.532;13.352;2023-07-30T01:09:52;98.55;;;72.85;;
41261;SDS011;29629;52.532;13.352;2023-07-30T01:12:19;104.72;;;74.57;;
41261;SDS011;29629;52.532;13.352;2023-07-30T01:14:47;97.95;;;73.03;;
41261;SDS011;29629;52.532;13.352;2023-07-30T01:17:16;96.95;;;72.85;;
41261;SDS011;29629;52.532;13.352;2023-07-30T01:19:44;106.57;;;74.70;;
41261;SDS011;29629;52.532;13.352;2023-07-30T01:22:12;97.50;;;73.22;;
41261;SDS011;29629;52.532;13.352;2023-07-30T01:24:39;106.90;;;75.40;;
41261;SDS011;29629;52.532;13.352;2023-07-30T01:27:06;100.70;;;73.45;;
41261;SDS011;29629;52.532;13.352;2023-07-30T01:29:37;109.50;;;76.00;;
41261;SDS011;29629;52.532;13.352;2023-07-30T01:32:08;98.13;;;72.45;;
41261;SDS011;29629;52.532;13.352;2023-07-30T01:34:38;104.22;;;74.38;;
41261;SDS011;29629;52.532;13.352;2023-07-30T01:37:08;100.38;;;74.00;;
41261;SDS011;29629;52.532;13.352;2023-07-30T01:39:39;102.38;;;73.50;;
41261;SDS011;29629;52.532;13.352;2023-07-30T01:42:08;113.93;;;77.55;;
41261;SDS011;29629;52.532;13.352;2023-07-30T01:44:37;107.10;;;75.90;;
41261;SDS011;29629;52.532;13.352;2023-07-30T01:47:04;101.00;;;73.65;;
41261;SDS011;29629;52.532;13.352;2023-07-30T01:49:34;100.65;;;74.15;;
41261;SDS011;29629;52.532;13.352;2023-07-30T01:52:01;100.05;;;74.13;;
41261;SDS011;29629;52.532;13.352;2023-07-30T01:54:28;98.80;;;73.07;;
41261;SDS011;29629;52.532;13.352;2023-07-30T01:56:57;101.25;;;73.25;;
41261;SDS011;29629;52.532;13.352;2023-07-30T01:59:24;91.82;;;70.63;;
41261;SDS011;29629;52.532;13.352;2023-07-30T02:01:50;100.35;;;73.10;;
41261;SDS011;29629;52.532;13.352;2023-07-30T02:04:17;100.80;;;73.10;;
41261;SDS011;29629;52.532;13.352;2023-07-30T02:06:44;95.70;;;71.75;;
41261;SDS011;29629;52.532;13.352;2023-07-30T02:09:11;101.55;;;73.93;;
41261;SDS011;29629;52.532;13.352;2023-07-30T02:11:38;102.00;;;73.82;;
41261;SDS011;29629;52.532;13.352;2023-07-30T02:14:06;99.45;;;73.28;;
41261;SDS011;29629;52.532;13.352;2023-07-30T02:16:35;103.55;;;73.93;;
41261;SDS011;29629;52.532;13.352;2023-07-30T02:19:01;123.50;;;78.75;;
41261;SDS011;29629;52.532;13.352;2023-07-30T02:21:29;103.57;;;74.07;;
41261;SDS011;29629;52.532;13.352;2023-07-30T02:23:57;100.57;;;72.93;;
41261;SDS011;29629;52.532;13.352;2023-07-30T02:26:25;98.85;;;72.00;;
41261;SDS011;29629;52.532;13.352;2023-07-30T02:28:52;112.30;;;75.53;;
41261;SDS011;29629;52.532;13.352;2023-07-30T02:31:20;109.88;;;75.45;;
41261;SDS011;29629;52.532;13.352;2023-07-30T02:33:47;100.70;;;73.25;;
41261;SDS011;29629;52.532;13.352;2023-07-30T02:36:14;104.00;;;75.35;;
41261;SDS011;29629;52.532;13.352;2023-07-30T02:38:41;109.57;;;75.57;;
41261;SDS011;29629;52.532;13.352;2023-07-30T02:41:07;104.55;;;74.43;;
41261;SDS011;29629;52.532;13.352;2023-07-30T02:43:34;114.88;;;77.47;;
41261;SDS011;29629;52.532;13.352;2023-07-30T02:46:01;102.53;;;73.57;;
41261;SDS011;29629;52.532;13.352;2023-07-30T02:48:29;99.80;;;73.10;;
41261;SDS011;29629;52.532;13.352;2023-07-30T02:50:56;97.78;;;72.75;;
41261;SDS011;29629;52.532;13.352;2023-07-30T02:53:23;104.97;;;74.38;;
41261;SDS011;29629;52.532;13.352;2023-07-30T02:55:50;103.45;;;73.97;;
41261;SDS011;29629;52.532;13.352;2023-07-30T02:58:17;105.10;;;74.53;;
41261;SDS011;29629;52.532;13.352;2023-07-30T03:00:44;107.63;;;75.55;;
41261;SDS011;29629;52.532;13.352;2023-07-30T03:03:11;104.25;;;74.53;;
41261;SDS011;29629;52.532;13.352;2023-07-30T03:05:42;119.80;;;78.78;;
41261;SDS011;29629;52.532;13.352;2023-07-30T03:08:09;105.65;;;74.32;;
41261;SDS011;29629;52.532;13.352;2023-07-30T03:10:36;107.78;;;74.63;;
41261;SDS011;29629;52.532;13.352;2023-07-30T03:13:03;103.55;;;73.55;;
41261;SDS011;29629;52.532;13.352;2023-07-30T03:15:30;106.88;;;74.68;;
41261;SDS011;29629;52.532;13.352;2023-07-30T03:17:57;106.82;;;74.10;;
41261;SDS011;29629;52.532;13.352;2023-07-30T03:20:24;104.47;;;74.35;;
41261;SDS011;29629;52.532;13.352;2023-07-30T03:22:52;98.43;;;72.28;;
41261;SDS011;29629;52.532;13.352;2023-07-30T03:25:19;105.18;;;74.05;;
41261;SDS011;29629;52.532;13.352;2023-07-30T03:27:46;110.80;;;75.88;;
41261;SDS011;29629;52.532;13.352;2023-07-30T03:30:13;104.97;;;73.75;;
41261;SDS011;29629;52.532;13.352;2023-07-30T03:32:40;109.38;;;75.78;;
41261;SDS011;29629;52.532;13.352;2023-07-30T03:35:07;107.00;;;74.97;;
41261;SDS011;29629;52.532;13.352;2023-07-30T03:37:34;116.03;;;77.53;;
41261;SDS011;29629;52.532;13.352;2023-07-30T03:40:03;106.45;;;74.25;;
41261;SDS011;29629;52.532;13.352;2023-07-30T03:42:30;108.30;;;74.65;;
41261;SDS011;29629;52.532;13.352;2023-07-30T03:44:57;101.75;;;72.82;;
41261;SDS011;29629;52.532;13.352;2023-07-30T03:47:24;102.45;;;73.32;;
41261;SDS011;29629;52.532;13.352;2023-07-30T03:49:51;102.45;;;72.78;;
41261;SDS011;29629;52.532;13.352;2023-07-30T03:52:18;101.00;;;72.78;;
41261;SDS011;29629;52.532;13.352;2023-07-30T03:54:45;106.07;;;74.43;;
41261;SDS011;29629;52.532;13.352;2023-07-30T03:57:13;105.63;;;74.93;;
41261;SDS011;29629;52.532;13.352;2023-07-30T03:59:40;102.50;;;73.38;;
41261;SDS011;29629;52.532;13.352;2023-07-30T04:02:07;108.60;;;75.32;;
41261;SDS011;29629;52.532;13.352;2023-07-30T04:04:34;113.60;;;75.60;;
41261;SDS011;29629;52.532;13.352;2023-07-30T04:07:01;106.30;;;74.63;;
41261;SDS011;29629;52.532;13.352;2023-07-30T04:09:28;109.30;;;75.00;;
41261;SDS011;29629;52.532;13.352;2023-07-30T04:11:55;103.32;;;73.80;;
41261;SDS011;29629;52.532;13.352;2023-07-30T04:14:23;105.28;;;74.35;;
41261;SDS011;29629;52.532;13.352;2023-07-30T04:16:50;102.47;;;73.90;;
41261;SDS011;29629;52.532;13.352;2023-07-30T04:19:17;107.10;;;74.82;;
41261;SDS011;29629;52.532;13.352;2023-07-30T04:21:44;115.88;;;77.00;;
41261;SDS011;29629;52.532;13.352;2023-07-30T04:24:11;109.57;;;75.53;;
41261;SDS011;29629;52.532;13.352;2023-07-30T04:26:38;108.60;;;75.10;;
41261;SDS011;29629;52.532;13.352;2023-07-30T04:29:05;135.95;;;82.43;;
41261;SDS011;29629;52.532;13.352;2023-07-30T04:31:33;108.32;;;75.10;;
41261;SDS011;29629;52.532;13.352;2023-07-30T04:34:00;105.82;;;74.55;;
41261;SDS011;29629;52.532;13.352;2023-07-30T04:36:27;104.28;;;73.55;;
41261;SDS011;29629;52.532;13.352;2023-07-30T04:38:54;131.55;;;81.07;;
41261;SDS011;29629;52.532;13.352;2023-07-30T04:41:21;106.70;;;74.78;;
41261;SDS011;29629;52.532;13.352;2023-07-30T04:43:48;111.75;;;76.70;;
41261;SDS011;29629;52.532;13.352;2023-07-30T04:46:15;109.47;;;75.55;;
41261;SDS011;29629;52.532;13.352;2023-07-30T04:48:43;104.20;;;73.38;;
41261;SDS011;29629;52.532;13.352;2023-07-30T04:51:10;105.90;;;74.18;;
41261;SDS011;29629;52.532;13.352;2023-07-30T04:53:37;111.80;;;75.88;;
41261;SDS011;29629;52.532;13.352;2023-07-30T04:56:04;104.80;;;74.72;;
41261;SDS011;29629;52.532;13.352;2023-07-30T04:58:31;110.65;;;76.25;;
41261;SDS011;29629;52.532;13.352;2023-07-30T05:00:58;107.93;;;75.25;;
41261;SDS011;29629;52.532;13.352;2023-07-30T05:03:25;103.32;;;74.00;;
41261;SDS011;29629;52.532;13.352;2023-07-30T05:05:53;104.60;;;74.45;;
41261;SDS011;29629;52.532;13.352;2023-07-30T05:08:20;108.55;;;76.15;;
41261;SDS011;29629;52.532;13.352;2023-07-30T05:10:47;97.40;;;72.30;;
41261;SDS011;29629;52.532;13.352;2023-07-30T05:13:14;107.68;;;76.05;;
41261;SDS011;29629;52.532;13.352;2023-07-30T05:15:41;115.90;;;79.20;;
41261;SDS011;29629;52.532;13.352;2023-07-30T05:18:08;105.70;;;76.10;;
41261;SDS011;29629;52.532;13.352;2023-07-30T05:20:35;108.93;;;77.35;;
41261;SDS011;29629;52.532;13.352;2023-07-30T05:23:03;105.43;;;75.68;;
41261;SDS011;29629;52.532;13.352;2023-07-30T05:25:32;116.30;;;79.05;;
41261;SDS011;29629;52.532;13.352;2023-07-30T05:27:58;101.72;;;74.78;;
41261;SDS011;29629;52.532;13.352;2023-07-30T05:30:25;104.35;;;75.22;;
41261;SDS011;29629;52.532;13.352;2023-07-30T05:32:52;103.88;;;75.30;;
41261;SDS011;29629;52.532;13.352;2023-07-30T05:35:19;107.32;;;76.43;;
41261;SDS011;29629;52.532;13.352;2023-07-30T05:37:46;105.88;;;75.40;;
41261;SDS011;29629;52.532;13.352;2023-07-30T05:40:15;104.03;;;75.15;;
41261;SDS011;29629;52.532;13.352;2023-07-30T05:42:42;107.43;;;75.57;;
41261;SDS011;29629;52.532;13.352;2023-07-30T05:45:09;104.60;;;75.00;;
41261;SDS011;29629;52.532;13.352;2023-07-30T05:47:37;109.20;;;76.75;;
41261;SDS011;29629;52.532;13.352;2023-07-30T05:50:04;98.95;;;74.10;;
41261;SDS011;29629;52.532;13.352;2023-07-30T05:52:32;103.35;;;74.38;;
41261;SDS011;29629;52.532;13.352;2023-07-30T05:54:59;102.72;;;74.88;;
41261;SDS011;29629;52.532;13.352;2023-07-30T05:57:27;103.22;;;75.15;;
41261;SDS011;29629;52.532;13.352;2023-07-30T05:59:54;104.53;;;75.93;;
41261;SDS011;29629;52.532;13.352;2023-07-30T06:02:21;108.63;;;76.57;;
41261;SDS011;29629;52.532;13.352;2023-07-30T06:04:48;104.43;;;75.03;;
41261;SDS011;29629;52.532;13.352;2023-07-30T06:07:15;105.65;;;76.03;;
41261;SDS011;29629;52.532;13.352;2023-07-30T06:09:42;114.60;;;78.45;;
41261;SDS011;29629;52.532;13.352;2023-07-30T06:12:10;104.70;;;75.85;;
41261;SDS011;29629;52.532;13.352;2023-07-30T06:14:38;107.00;;;76.18;;
41261;SDS011;29629;52.532;13.352;2023-07-30T06:17:05;105.75;;;76.20;;
41261;SDS011;29629;52.532;13.352;2023-07-30T06:19:32;110.70;;;77.85;;
41261;SDS011;29629;52.532;13.352;2023-07-30T06:22:00;103.80;;;76.50;;
41261;SDS011;29629;52.532;13.352;2023-07-30T06:24:28;105.53;;;76.40;;
41261;SDS011;29629;52.532;13.352;2023-07-30T06:26:54;105.97;;;76.57;;
41261;SDS011;29629;52.532;13.352;2023-07-30T06:29:21;106.55;;;77.00;;
41261;SDS011;29629;52.532;13.352;2023-07-30T06:31:50;105.53;;;76.88;;
41261;SDS011;29629;52.532;13.352;2023-07-30T06:34:16;107.18;;;78.00;;
41261;SDS011;29629;52.532;13.352;2023-07-30T06:36:43;108.05;;;77.57;;
41261;SDS011;29629;52.532;13.352;2023-07-30T06:39:10;112.40;;;78.78;;
41261;SDS011;29629;52.532;13.352;2023-07-30T06:41:37;112.10;;;78.57;;
41261;SDS011;29629;52.532;13.352;2023-07-30T06:44:04;107.60;;;78.30;;
41261;SDS011;29629;52.532;13.352;2023-07-30T06:46:31;108.45;;;77.45;;
41261;SDS011;29629;52.532;13.352;2023-07-30T06:48:59;134.88;;;85.25;;
41261;SDS011;29629;52.532;13.352;2023-07-30T06:51:26;109.60;;;78.28;;
41261;SDS011;29629;52.532;13.352;2023-07-30T06:53:54;102.15;;;76.78;;
41261;SDS011;29629;52.532;13.352;2023-07-30T06:56:21;102.93;;;76.50;;
41261;SDS011;29629;52.532;13.352;2023-07-30T06:58:48;111.05;;;79.60;;
41261;SDS011;29629;52.532;13.352;2023-07-30T07:01:15;106.53;;;76.75;;
41261;SDS011;29629;52.532;13.352;2023-07-30T07:03:42;111.40;;;79.45;;
41261;SDS011;29629;52.532;13.352;2023-07-30T07:06:10;101.28;;;75.88;;
41261;SDS011;29629;52.532;13.352;2023-07-30T07:08:37;115.20;;;80.35;;
41261;SDS011;29629;52.532;13.352;2023-07-30T07:11:04;107.35;;;78.30;;
41261;SDS011;29629;52.532;13.352;2023-07-30T07:13:31;111.82;;;78.53;;
41261;SDS011;29629;52.532;13.352;2023-07-30T07:15:58;113.85;;;80.38;;
41261;SDS011;29629;52.532;13.352;2023-07-30T07:18:25;108.07;;;78.68;;
41261;SDS011;29629;52.532;13.352;2023-07-30T07:20:52;101.72;;;76.75;;
41261;SDS011;29629;52.532;13.352;2023-07-30T07:23:20;113.40;;;81.07;;
41261;SDS011;29629;52.532;13.352;2023-07-30T07:25:47;107.28;;;78.75;;
41261;SDS011;29629;52.532;13.352;2023-07-30T07:28:14;107.47;;;79.03;;
41261;SDS011;29629;52.532;13.352;2023-07-30T07:30:42;110.70;;;80.53;;
41261;SDS011;29629;52.532;13.352;2023-07-30T07:33:09;102.60;;;78.55;;
41261;SDS011;29629;52.532;13.352;2023-07-30T07:35:38;113.38;;;81.85;;
41261;SDS011;29629;52.532;13.352;2023-07-30T07:38:05;110.72;;;80.78;;
41261;SDS011;29629;52.532;13.352;2023-07-30T07:40:36;116.65;;;82.40;;
41261;SDS011;29629;52.532;13.352;2023-07-30T07:43:05;106.55;;;80.28;;
41261;SDS011;29629;52.532;13.352;2023-07-30T07:45:32;112.38;;;81.70;;
41261;SDS011;29629;52.532;13.352;2023-07-30T07:47:59;100.40;;;78.25;;
41261;SDS011;29629;52.532;13.352;2023-07-30T07:50:26;105.28;;;79.57;;
41261;SDS011;29629;52.532;13.352;2023-07-30T07:52:53;108.53;;;80.97;;
41261;SDS011;29629;52.532;13.352;2023-07-30T07:55:20;107.25;;;80.38;;
41261;SDS011;29629;52.532;13.352;2023-07-30T07:57:48;114.43;;;82.90;;
41261;SDS011;29629;52.532;13.352;2023-07-30T08:00:15;107.43;;;80.90;;
41261;SDS011;29629;52.532;13.352;2023-07-30T08:02:43;102.88;;;79.60;;
41261;SDS011;29629;52.532;13.352;2023-07-30T08:05:10;111.57;;;83.00;;
41261;SDS011;29629;52.532;13.352;2023-07-30T08:07:37;106.45;;;81.55;;
41261;SDS011;29629;52.532;13.352;2023-07-30T08:10:04;108.63;;;82.78;;
41261;SDS011;29629;52.532;13.352;2023-07-30T08:12:32;108.20;;;82.47;;
41261;SDS011;29629;52.532;13.352;2023-07-30T08:15:00;112.20;;;83.07;;
41261;SDS011;29629;52.532;13.352;2023-07-30T08:17:27;103.20;;;80.30;;
41261;SDS011;29629;52.532;13.352;2023-07-30T08:19:54;114.68;;;84.50;;
41261;SDS011;29629;52.532;13.352;2023-07-30T08:22:21;106.63;;;81.88;;
41261;SDS011;29629;52.532;13.352;2023-07-30T08:24:48;104.32;;;81.30;;
41261;SDS011;29629;52.532;13.352;2023-07-30T08:27:15;104.32;;;81.38;;
41261;SDS011;29629;52.532;13.352;2023-07-30T08:29:42;115.95;;;84.13;;
41261;SDS011;29629;52.532;13.352;2023-07-30T08:32:10;100.70;;;79.45;;
41261;SDS011;29629;52.532;13.352;2023-07-30T08:34:37;115.97;;;85.05;;
41261;SDS011;29629;52.532;13.352;2023-07-30T08:37:04;97.43;;;79.53;;
41261;SDS011;29629;52.532;13.352;2023-07-30T08:39:33;106.25;;;81.68;;
41261;SDS011;29629;52.532;13.352;2023-07-30T08:42:01;102.00;;;80.65;;
41261;SDS011;29629;52.532;13.352;2023-07-30T08:44:29;110.28;;;82.82;;
41261;SDS011;29629;52.532;13.352;2023-07-30T08:46:56;101.70;;;80.88;;
41261;SDS011;29629;52.532;13.352;2023-07-30T08:49:24;101.82;;;81.55;;
41261;SDS011;29629;52.532;13.352;2023-07-30T08:51:53;111.43;;;84.65;;
41261;SDS011;29629;52.532;13.352;2023-07-30T08:54:21;103.00;;;82.13;;
41261;SDS011;29629;52.532;13.352;2023-07-30T08:56:49;99.65;;;81.05;;
41261;SDS011;29629;52.532;13.352;2023-07-30T08:59:17;101.32;;;81.75;;
41261;SDS011;29629;52.532;13.352;2023-07-30T09:01:45;106.78;;;83.93;;
41261;SDS011;29629;52.532;13.352;2023-07-30T09:04:15;104.32;;;83.50;;
41261;SDS011;29629;52.532;13.352;2023-07-30T09:06:48;107.82;;;84.55;;
41261;SDS011;29629;52.532;13.352;2023-07-30T09:09:16;103.70;;;83.15;;
41261;SDS011;29629;52.532;13.352;2023-07-30T09:11:43;109.35;;;85.07;;
41261;SDS011;29629;52.532;13.352;2023-07-30T09:14:18;105.10;;;84.50;;
41261;SDS011;29629;52.532;13.352;2023-07-30T09:16:46;101.22;;;85.00;;
41261;SDS011;29629;52.532;13.352;2023-07-30T09:19:15;101.70;;;84.60;;
41261;SDS011;29629;52.532;13.352;2023-07-30T09:21:43;100.10;;;84.60;;
41261;SDS011;29629;52.532;13.352;2023-07-30T09:24:12;98.90;;;84.82;;
41261;SDS011;29629;52.532;13.352;2023-07-30T09:26:39;101.18;;;86.47;;
41261;SDS011;29629;52.532;13.352;2023-07-30T09:29:08;110.22;;;88.88;;
41261;SDS011;29629;52.532;13.352;2023-07-30T09:31:48;105.20;;;86.63;;
41261;SDS011;29629;52.532;13.352;2023-07-30T09:34:19;100.20;;;84.68;;
41261;SDS011;29629;52.532;13.352;2023-07-30T09:36:46;94.35;;;83.15;;
41261;SDS011;29629;52.532;13.352;2023-07-30T09:39:16;102.68;;;86.20;;
41261;SDS011;29629;52.532;13.352;2023-07-30T09:41:43;102.18;;;86.10;;
41261;SDS011;29629;52.532;13.352;2023-07-30T09:44:12;98.35;;;84.65;;
41261;SDS011;29629;52.532;13.352;2023-07-30T09:46:43;99.97;;;84.60;;
41261;SDS011;29629;52.532;13.352;2023-07-30T09:49:11;98.93;;;84.00;;
41261;SDS011;29629;52.532;13.352;2023-07-30T09:51:39;99.63;;;83.72;;
41261;SDS011;29629;52.532;13.352;2023-07-30T09:54:06;98.10;;;83.32;;
41261;SDS011;29629;52.532;13.352;2023-07-30T09:56:35;103.28;;;84.95;;
41261;SDS011;29629;52.532;13.352;2023-07-30T09:59:03;118.30;;;88.50;;
41261;SDS011;29629;52.532;13.352;2023-07-30T10:01:30;93.13;;;80.82;;
41261;SDS011;29629;52.532;13.352;2023-07-30T10:03:59;95.03;;;82.70;;
41261;SDS011;29629;52.532;13.352;2023-07-30T10:06:30;98.15;;;84.85;;
41261;SDS011;29629;52.532;13.352;2023-07-30T10:09:00;121.72;;;89.63;;
41261;SDS011;29629;52.532;13.352;2023-07-30T10:11:28;88.47;;;78.82;;
41261;SDS011;29629;52.532;13.352;2023-07-30T10:13:57;88.60;;;74.63;;
41261;SDS011;29629;52.532;13.352;2023-07-30T10:16:25;86.85;;;74.88;;
41261;SDS011;29629;52.532;13.352;2023-07-30T10:18:55;106.65;;;83.13;;
41261;SDS011;29629;52.532;13.352;2023-07-30T10:21:24;100.70;;;88.85;;
41261;SDS011;29629;52.532;13.352;2023-07-30T10:23:59;108.65;;;90.63;;
41261;SDS011;29629;52.532;13.352;2023-07-30T10:26:27;100.18;;;87.95;;
41261;SDS011;29629;52.532;13.352;2023-07-30T10:29:15;105.70;;;81.13;;
41261;SDS011;29629;52.532;13.352;2023-07-30T10:31:43;89.38;;;79.50;;
41261;SDS011;29629;52.532;13.352;2023-07-30T10:34:13;90.18;;;80.85;;
41261;SDS011;29629;52.532;13.352;2023-07-30T10:36:41;85.45;;;76.30;;
41261;SDS011;29629;52.532;13.352;2023-07-30T10:39:13;80.68;;;72.13;;
41261;SDS011;29629;52.532;13.352;2023-07-30T10:41:45;75.60;;;68.25;;
41261;SDS011;29629;52.532;13.352;2023-07-30T10:44:21;112.68;;;105.85;;
41261;SDS011;29629;52.532;13.352;2023-07-30T10:46:49;223.35;;;212.18;;
41261;SDS011;29629;52.532;13.352;2023-07-30T10:49:17;166.57;;;156.82;;
41261;SDS011;29629;52.532;13.352;2023-07-30T10:51:44;84.60;;;76.88;;
41261;SDS011;29629;52.532;13.352;2023-07-30T10:54:11;104.30;;;92.97;;
41261;SDS011;29629;52.532;13.352;2023-07-30T10:56:38;100.60;;;90.18;;
41261;SDS011;29629;52.532;13.352;2023-07-30T10:59:05;91.50;;;76.50;;
41261;SDS011;29629;52.532;13.352;2023-07-30T11:01:37;99.57;;;90.75;;
41261;SDS011;29629;52.532;13.352;2023-07-30T11:04:09;89.80;;;80.50;;
41261;SDS011;29629;52.532;13.352;2023-07-30T11:06:36;95.55;;;85.20;;
41261;SDS011;29629;52.532;13.352;2023-07-30T11:09:04;119.43;;;96.28;;
41261;SDS011;29629;52.532;13.352;2023-07-30T11:11:31;103.95;;;92.53;;
41261;SDS011;29629;52.532;13.352;2023-07-30T11:13:58;102.10;;;90.95;;
41261;SDS011;29629;52.532;13.352;2023-07-30T11:16:25;84.63;;;76.13;;
41261;SDS011;29629;52.532;13.352;2023-07-30T11:18:54;85.20;;;75.60;;
41261;SDS011;29629;52.532;13.352;2023-07-30T11:21:21;158.52;;;148.60;;
41261;SDS011;29629;52.532;13.352;2023-07-30T11:23:50;122.63;;;114.05;;
41261;SDS011;29629;52.532;13.352;2023-07-30T11:26:18;154.98;;;145.88;;
41261;SDS011;29629;52.532;13.352;2023-07-30T11:28:45;301.92;;;288.00;;
41261;SDS011;29629;52.532;13.352;2023-07-30T11:31:13;301.50;;;287.52;;
41261;SDS011;29629;52.532;13.352;2023-07-30T11:33:42;317.67;;;302.77;;
41261;SDS011;29629;52.532;13.352;2023-07-30T11:36:12;351.50;;;335.38;;
41261;SDS011;29629;52.532;13.352;2023-07-30T11:38:41;336.55;;;321.25;;
41261;SDS011;29629;52.532;13.352;2023-07-30T11:41:08;326.23;;;310.08;;
41261;SDS011;29629;52.532;13.352;2023-07-30T11:43:37;360.50;;;343.42;;
41261;SDS011;29629;52.532;13.352;2023-07-30T11:46:06;378.08;;;360.00;;
41261;SDS011;29629;52.532;13.352;2023-07-30T11:48:33;369.13;;;351.73;;
41261;SDS011;29629;52.532;13.352;2023-07-30T11:51:00;194.95;;;184.20;;
41261;SDS011;29629;52.532;13.352;2023-07-30T11:56:14;94.32;;;85.32;;
41261;SDS011;29629;52.532;13.352;2023-07-30T11:58:46;108.88;;;100.55;;
41261;SDS011;29629;52.532;13.352;2023-07-30T12:01:14;110.72;;;101.53;;
41261;SDS011;29629;52.532;13.352;2023-07-30T12:03:42;159.60;;;149.65;;
41261;SDS011;29629;52.532;13.352;2023-07-30T12:06:09;135.68;;;126.00;;
41261;SDS011;29629;52.532;13.352;2023-07-30T12:08:37;135.50;;;125.72;;
41261;SDS011;29629;52.532;13.352;2023-07-30T12:11:06;179.77;;;169.18;;
41261;SDS011;29629;52.532;13.352;2023-07-30T12:13:41;128.68;;;119.93;;
41261;SDS011;29629;52.532;13.352;2023-07-30T12:16:09;103.57;;;94.07;;
41261;SDS011;29629;52.532;13.352;2023-07-30T12:18:37;98.60;;;89.65;;
41261;SDS011;29629;52.532;13.352;2023-07-30T12:21:04;101.55;;;93.00;;
41261;SDS011;29629;52.532;13.352;2023-07-30T12:23:33;86.85;;;77.90;;
41261;SDS011;29629;52.532;13.352;2023-07-30T12:26:00;94.28;;;84.40;;
41261;SDS011;29629;52.532;13.352;2023-07-30T12:28:31;101.93;;;91.28;;
41261;SDS011;29629;52.532;13.352;2023-07-30T12:30:59;99.97;;;88.43;;
41261;SDS011;29629;52.532;13.352;2023-07-30T12:33:26;96.13;;;86.15;;
41261;SDS011;29629;52.532;13.352;2023-07-30T12:35:53;98.70;;;87.93;;
41261;SDS011;29629;52.532;13.352;2023-07-30T12:38:20;104.82;;;90.43;;
41261;SDS011;29629;52.532;13.352;2023-07-30T12:40:48;94.32;;;84.30;;
41261;SDS011;29629;52.532;13.352;2023-07-30T12:43:15;97.90;;;87.38;;
41261;SDS011;29629;52.532;13.352;2023-07-30T12:45:45;105.53;;;89.72;;
41261;SDS011;29629;52.532;13.352;2023-07-30T12:48:12;100.25;;;87.78;;
41261;SDS011;29629;52.532;13.352;2023-07-30T12:50:39;100.57;;;88.07;;
41261;SDS011;29629;52.532;13.352;2023-07-30T12:53:06;100.38;;;89.35;;
41261;SDS011;29629;52.532;13.352;2023-07-30T12:55:33;103.68;;;89.90;;
41261;SDS011;29629;52.532;13.352;2023-07-30T12:58:00;104.32;;;89.65;;
41261;SDS011;29629;52.532;13.352;2023-07-30T13:00:27;101.80;;;89.60;;
41261;SDS011;29629;52.532;13.352;2023-07-30T13:02:55;99.72;;;87.85;;
41261;SDS011;29629;52.532;13.352;2023-07-30T13:05:22;110.97;;;91.50;;
41261;SDS011;29629;52.532;13.352;2023-07-30T13:07:49;105.30;;;90.55;;
41261;SDS011;29629;52.532;13.352;2023-07-30T13:10:16;109.10;;;92.78;;
41261;SDS011;29629;52.532;13.352;2023-07-30T13:12:43;103.00;;;90.82;;
41261;SDS011;29629;52.532;13.352;2023-07-30T13:15:10;105.88;;;89.22;;
41261;SDS011;29629;52.532;13.352;2023-07-30T13:17:37;105.28;;;93.32;;
41261;SDS011;29629;52.532;13.352;2023-07-30T13:20:06;114.55;;;95.32;;
41261;SDS011;29629;52.532;13.352;2023-07-30T13:22:34;107.85;;;94.78;;
41261;SDS011;29629;52.532;13.352;2023-07-30T13:25:01;109.47;;;91.75;;
41261;SDS011;29629;52.532;13.352;2023-07-30T13:27:28;115.45;;;92.30;;
41261;SDS011;29629;52.532;13.352;2023-07-30T13:29:55;118.25;;;92.22;;
41261;SDS011;29629;52.532;13.352;2023-07-30T13:32:22;110.07;;;90.85;;
41261;SDS011;29629;52.532;13.352;2023-07-30T13:34:49;113.95;;;91.40;;
41261;SDS011;29629;52.532;13.352;2023-07-30T13:37:17;107.95;;;90.60;;
41261;SDS011;29629;52.532;13.352;2023-07-30T13:39:44;108.45;;;90.53;;
41261;SDS011;29629;52.532;13.352;2023-07-30T13:42:11;106.90;;;88.45;;
41261;SDS011;29629;52.532;13.352;2023-07-30T13:44:38;120.65;;;92.60;;
41261;SDS011;29629;52.532;13.352;2023-07-30T13:47:05;107.72;;;88.20;;
41261;SDS011;29629;52.532;13.352;2023-07-30T13:49:32;111.93;;;90.05;;
41261;SDS011;29629;52.532;13.352;2023-07-30T13:51:59;112.60;;;91.53;;
41261;SDS011;29629;52.532;13.352;2023-07-30T13:54:27;107.93;;;89.20;;
41261;SDS011;29629;52.532;13.352;2023-07-30T13:56:54;107.93;;;88.22;;
41261;SDS011;29629;52.532;13.352;2023-07-30T13:59:21;111.85;;;89.35;;
41261;SDS011;29629;52.532;13.352;2023-07-30T14:01:48;110.65;;;91.72;;
41261;SDS011;29629;52.532;13.352;2023-07-30T14:04:15;107.18;;;87.68;;